Time;durP1;ratioP1;P1;durP2;ratioP2;P2;SDS_P1;SDS_P2;PMS_P1;PMS_P2;Temp;Humidity;BMP_temperature;BMP_pressure;BME280_temperature;BME280_humidity;BME280_pressure;Samples;Min_cycle;Max_cycle;Signal;HPM_P1;HPM_P2
2021/03/09 00:01:30;;;;;;;33.75;17.52;;;;;;;5.89;41.25;101650.44;5085363;28;20063;-73
2021/03/09 00:03:59;;;;;;;41.35;20.33;;;;;;;5.91;41.33;101644.94;5094660;28;20040;-73
2021/03/09 00:06:27;;;;;;;35.85;17.73;;;;;;;5.91;41.27;101642.22;5092453;28;20491;-73
2021/03/09 00:08:54;;;;;;;39.17;17.88;;;;;;;5.91;41.35;101642.22;5073977;28;20040;-73
2021/03/09 00:11:21;;;;;;;38.17;18.27;;;;;;;5.92;41.15;101644.84;5092323;28;20402;-73
2021/03/09 00:13:49;;;;;;;39.65;18.02;;;;;;;5.92;41.51;101638.56;5091855;28;20048;-73
2021/03/09 00:16:16;;;;;;;39.88;18.27;;;;;;;5.92;41.27;101642.13;5092600;28;20571;-73
2021/03/09 00:18:47;;;;;;;37.10;17.38;;;;;;;5.92;41.30;101636.69;5091145;28;20044;-73
2021/03/09 00:21:15;;;;;;;35.10;16.65;;;;;;;5.93;41.45;101626.69;5091192;28;20040;-73
2021/03/09 00:23:43;;;;;;;37.53;17.83;;;;;;;5.93;41.63;101629.41;5092196;28;20105;-73
2021/03/09 00:26:10;;;;;;;35.65;17.05;;;;;;;5.94;41.65;101636.59;5090575;28;20506;-73
2021/03/09 00:28:37;;;;;;;33.80;16.85;;;;;;;5.94;41.50;101634.75;5090999;28;20588;-73
2021/03/09 00:31:04;;;;;;;35.67;17.02;;;;;;;5.95;41.68;101635.66;5071538;28;20051;-73
2021/03/09 00:33:32;;;;;;;36.70;17.73;;;;;;;5.97;41.43;101631.91;5091318;28;20040;-73
2021/03/09 00:36:00;;;;;;;35.50;17.38;;;;;;;5.98;41.83;101630.06;5095981;28;20052;-74
2021/03/09 00:38:28;;;;;;;38.10;17.60;;;;;;;6.00;41.88;101629.97;5097405;28;20355;-73
2021/03/09 00:40:56;;;;;;;36.25;16.88;;;;;;;5.99;41.69;101623.66;5086998;28;20044;-73
2021/03/09 00:43:23;;;;;;;37.15;17.10;;;;;;;6.01;41.50;101627.16;5091827;28;20040;-73
2021/03/09 00:45:52;;;;;;;34.63;16.45;;;;;;;6.02;41.70;101619.88;5090720;28;20090;-73
2021/03/09 00:48:19;;;;;;;35.40;16.23;;;;;;;6.03;41.56;101621.66;5090586;28;20490;-73
2021/03/09 00:50:46;;;;;;;38.72;16.35;;;;;;;6.03;41.83;101614.38;5070094;28;20411;-73
2021/03/09 00:53:13;;;;;;;36.67;17.10;;;;;;;6.04;41.79;101621.56;5072413;28;20394;-73
2021/03/09 00:55:43;;;;;;;33.92;15.95;;;;;;;6.06;41.59;101613.34;5090685;28;20036;-74
2021/03/09 00:58:10;;;;;;;38.30;18.02;;;;;;;6.06;41.84;101614.22;5090945;28;20605;-74
2021/03/09 01:00:37;;;;;;;31.85;15.43;;;;;;;6.07;41.85;101618.69;5067891;28;20047;-73
2021/03/09 01:03:05;;;;;;;37.45;16.67;;;;;;;6.09;41.82;101615.91;5073286;28;20055;-74
2021/03/09 01:05:32;;;;;;;34.78;15.98;;;;;;;6.08;41.86;101617.72;5089957;28;20043;-74
2021/03/09 01:08:00;;;;;;;35.13;16.50;;;;;;;6.08;42.08;101612.31;5090474;28;20067;-74
2021/03/09 01:10:28;;;;;;;32.45;15.40;;;;;;;6.10;41.95;101625.78;5091320;28;20051;-74
2021/03/09 01:12:56;;;;;;;36.75;15.95;;;;;;;6.10;41.99;101618.50;5083537;28;20044;-73
2021/03/09 01:15:23;;;;;;;32.88;15.77;;;;;;;6.11;41.70;101624.81;5088722;28;20063;-74
2021/03/09 01:17:50;;;;;;;36.13;16.63;;;;;;;6.11;41.79;101622.09;5080371;28;20669;-73
2021/03/09 01:20:18;;;;;;;35.90;15.60;;;;;;;6.10;42.03;101621.22;5089983;28;20048;-73
2021/03/09 01:22:45;;;;;;;33.38;15.88;;;;;;;6.12;41.92;101622.00;5086707;28;20090;-73
2021/03/09 01:25:13;;;;;;;36.97;16.70;;;;;;;6.12;41.99;101621.13;5089827;28;20065;-74
2021/03/09 01:27:40;;;;;;;34.22;17.00;;;;;;;6.12;42.14;101613.00;5092748;28;20135;-74
2021/03/09 01:30:18;;;;;;;35.80;17.25;;;;;;;6.13;42.32;101615.63;5071678;28;20127;-73
2021/03/09 01:32:45;;;;;;;33.47;16.10;;;;;;;6.13;42.12;101617.47;5072682;28;20550;-73
2021/03/09 01:35:14;;;;;;;30.33;14.98;;;;;;;6.12;42.12;101603.00;5089516;28;20079;-74
2021/03/09 01:37:41;;;;;;;36.35;16.85;;;;;;;6.14;42.35;101614.66;5073946;28;20140;-73
2021/03/09 01:40:11;;;;;;;31.75;16.25;;;;;;;6.13;42.08;101607.47;5090504;28;20043;-73
2021/03/09 01:42:39;;;;;;;33.50;15.43;;;;;;;6.13;42.37;101612.91;5089527;28;20048;-73
2021/03/09 01:45:08;;;;;;;34.72;15.90;;;;;;;6.15;42.19;101607.41;5076399;28;20040;-73
2021/03/09 01:47:42;;;;;;;33.83;15.57;;;;;;;6.16;42.70;101601.88;5069189;28;20083;-74
2021/03/09 01:50:11;;;;;;;29.80;15.50;;;;;;;6.14;42.20;101600.22;5055776;28;20072;-73
2021/03/09 01:52:40;;;;;;;32.50;15.77;;;;;;;6.14;42.26;101598.38;5088700;28;20101;-73
2021/03/09 01:55:10;;;;;;;35.03;16.27;;;;;;;6.15;42.54;101596.53;5087124;28;20035;-74
2021/03/09 01:57:41;;;;;;;32.45;16.67;;;;;;;6.14;42.41;101595.66;5088387;28;20127;-73
2021/03/09 02:00:10;;;;;;;35.03;15.80;;;;;;;6.16;42.27;101587.41;5090234;28;20131;-73
2021/03/09 02:02:44;;;;;;;32.25;15.32;;;;;;;6.15;42.61;101582.94;5063530;28;20112;-74
2021/03/09 02:05:13;;;;;;;34.70;16.23;;;;;;;6.15;42.28;101583.81;5080363;28;20047;-74
2021/03/09 02:07:41;;;;;;;29.42;15.30;;;;;;;6.15;42.26;101581.13;5091134;28;20077;-74
2021/03/09 02:10:11;;;;;;;33.58;15.70;;;;;;;6.15;42.52;101575.69;5090155;28;20512;-74
2021/03/09 02:12:48;;;;;;;31.05;15.68;;;;;;;6.16;42.98;101572.00;5084664;28;20126;-74
2021/03/09 02:15:24;;;;;;;27.83;15.00;;;;;;;6.15;42.92;101567.53;5082086;28;20040;-74
2021/03/09 02:17:58;;;;;;;32.63;14.75;;;;;;;6.16;43.00;101566.56;5079517;28;20044;-74
2021/03/09 02:20:59;;;;;;;31.33;15.63;;;;;;;6.16;43.04;101557.53;5077307;28;20052;-74
2021/03/09 02:24:08;;;;;;;29.50;15.52;;;;;;;6.14;43.21;101559.47;5082521;28;20051;-74
2021/03/09 02:27:07;;;;;;;26.30;13.98;;;;;;;6.12;43.40;101543.25;5069797;28;20095;-74
2021/03/09 02:29:59;;;;;;;32.08;14.52;;;;;;;6.14;43.19;101541.31;5080861;28;20040;-74
2021/03/09 02:32:29;;;;;;;27.63;13.57;;;;;;;6.13;42.80;101541.41;5047738;28;20486;-74
2021/03/09 02:34:59;;;;;;;30.92;14.15;;;;;;;6.13;42.55;101545.00;5090912;28;20507;-74
2021/03/09 02:37:31;;;;;;;31.98;15.48;;;;;;;6.15;43.12;101543.06;5089277;28;20063;-74
2021/03/09 02:39:59;;;;;;;30.05;15.23;;;;;;;6.12;42.95;101536.94;5072197;28;20337;-74
2021/03/09 02:42:28;;;;;;;33.20;15.52;;;;;;;6.14;42.68;101538.59;5090012;28;20426;-73
2021/03/09 02:45:00;;;;;;;30.40;15.00;;;;;;;6.15;43.12;101537.66;5089683;28;20123;-73
2021/03/09 02:47:30;;;;;;;26.60;14.45;;;;;;;6.14;42.67;101537.72;5089597;28;20142;-73
2021/03/09 02:50:01;;;;;;;29.23;14.23;;;;;;;6.14;42.78;101527.75;5089051;28;20359;-74
2021/03/09 02:52:31;;;;;;;26.73;13.70;;;;;;;6.15;43.00;101531.34;5086236;28;20193;-73
2021/03/09 02:55:01;;;;;;;33.08;15.05;;;;;;;6.15;43.18;101520.47;5088070;28;20121;-74
2021/03/09 02:57:32;;;;;;;28.00;14.38;;;;;;;6.15;43.11;101524.06;5096107;28;20035;-73
2021/03/09 03:00:02;;;;;;;30.70;13.98;;;;;;;6.15;43.13;101517.75;5083825;28;20036;-73
2021/03/09 03:02:29;;;;;;;29.35;14.90;;;;;;;6.13;43.11;101515.13;5088701;28;20040;-74
2021/03/09 03:04:57;;;;;;;30.65;15.00;;;;;;;6.13;42.98;101520.56;5091859;28;20634;-74
2021/03/09 03:07:26;;;;;;;30.00;15.30;;;;;;;6.15;43.22;101518.63;5071288;28;20126;-73
2021/03/09 03:09:53;;;;;;;32.42;15.32;;;;;;;6.14;43.07;101510.56;5088299;28;20046;-74
2021/03/09 03:12:21;;;;;;;29.45;14.88;;;;;;;6.15;43.26;101507.75;5089354;28;20043;-73
2021/03/09 03:14:49;;;;;;;28.38;14.35;;;;;;;6.13;43.24;101501.53;5092587;28;20639;-74
2021/03/09 03:17:18;;;;;;;26.77;14.63;;;;;;;6.16;43.00;101505.94;5091285;28;20092;-73
2021/03/09 03:19:50;;;;;;;26.63;13.77;;;;;;;6.14;43.11;101503.28;5093986;28;20117;-73
2021/03/09 03:22:19;;;;;;;26.55;14.68;;;;;;;6.15;43.05;101504.16;5087856;28;20044;-73
2021/03/09 03:24:48;;;;;;;29.25;13.45;;;;;;;6.15;43.13;101501.44;5084679;28;20051;-73
2021/03/09 03:27:17;;;;;;;26.40;13.55;;;;;;;6.16;43.00;101503.22;5090243;28;20050;-73
2021/03/09 03:29:46;;;;;;;26.80;13.80;;;;;;;6.16;43.19;101508.66;5078631;28;20204;-73
2021/03/09 03:32:14;;;;;;;26.08;13.43;;;;;;;6.16;43.04;101503.22;5086633;28;20044;-73
2021/03/09 03:34:45;;;;;;;25.67;12.85;;;;;;;6.16;43.15;101511.34;5100198;28;20040;-72
2021/03/09 03:37:14;;;;;;;25.80;13.77;;;;;;;6.16;42.99;101505.94;5092270;28;20036;-72
2021/03/09 03:39:41;;;;;;;28.10;14.23;;;;;;;6.15;43.46;101494.19;5087629;28;20465;-71
2021/03/09 03:42:10;;;;;;;22.85;12.80;;;;;;;6.14;43.21;101497.88;5088555;28;20045;-71
2021/03/09 03:44:38;;;;;;;26.35;13.35;;;;;;;6.14;43.34;101496.97;5091598;28;20048;-70
2021/03/09 03:47:05;;;;;;;23.45;12.48;;;;;;;6.14;43.36;101492.44;5093710;28;20047;-72
2021/03/09 03:49:34;;;;;;;25.13;13.55;;;;;;;6.15;43.25;101487.88;5073362;28;20063;-72
2021/03/09 03:52:10;;;;;;;25.05;13.35;;;;;;;6.17;43.45;101491.38;5074539;28;20063;-73
2021/03/09 03:54:48;;;;;;;24.95;12.95;;;;;;;6.15;43.63;101494.19;5085307;28;20538;-73
2021/03/09 03:57:18;;;;;;;24.35;13.55;;;;;;;6.13;43.37;101489.78;5087813;28;20052;-73
2021/03/09 03:59:52;;;;;;;24.27;13.27;;;;;;;6.13;43.30;101484.34;5090500;28;20044;-74
2021/03/09 04:02:20;;;;;;;25.35;12.65;;;;;;;6.12;43.24;101488.03;5088013;28;20051;-73
2021/03/09 04:04:50;;;;;;;25.90;13.63;;;;;;;6.11;43.14;101492.59;5090896;28;20582;-73
2021/03/09 04:07:23;;;;;;;31.15;16.13;;;;;;;6.10;43.43;101488.13;5087167;28;20534;-73
2021/03/09 04:09:52;;;;;;;28.83;14.40;;;;;;;6.07;43.31;101484.72;5090723;28;20040;-73
2021/03/09 04:12:22;;;;;;;24.35;13.38;;;;;;;6.06;43.18;101483.84;5073841;28;20039;-73
2021/03/09 04:14:50;;;;;;;27.25;14.80;;;;;;;6.04;43.04;101474.91;5089558;28;20097;-73
2021/03/09 04:17:19;;;;;;;30.83;16.50;;;;;;;6.04;43.15;101484.88;5091230;28;20036;-72
2021/03/09 04:19:47;;;;;;;33.78;16.52;;;;;;;6.01;42.91;101483.22;5085942;28;20456;-72
2021/03/09 04:22:18;;;;;;;29.88;16.13;;;;;;;5.99;42.82;101485.16;5092620;28;20040;-72
2021/03/09 04:24:47;;;;;;;31.58;15.48;;;;;;;5.96;43.02;101483.50;5056930;28;20029;-73
2021/03/09 04:27:21;;;;;;;30.38;15.68;;;;;;;5.93;42.96;101477.34;5087170;28;20040;-73
2021/03/09 04:29:51;;;;;;;25.98;13.65;;;;;;;5.89;43.22;101479.38;5090137;28;20406;-73
2021/03/09 04:32:19;;;;;;;31.80;15.48;;;;;;;5.86;43.21;101474.13;5086913;28;20079;-73
2021/03/09 04:34:47;;;;;;;31.65;15.98;;;;;;;5.85;43.05;101469.63;5089671;28;20051;-73
2021/03/09 04:37:35;;;;;;;27.98;15.15;;;;;;;5.81;43.36;101476.22;5094360;28;20047;-73
2021/03/09 04:40:04;;;;;;;27.38;14.95;;;;;;;5.82;43.10;101471.66;5096484;28;20044;-73
2021/03/09 04:42:32;;;;;;;31.55;16.65;;;;;;;5.78;43.29;101468.25;5092277;28;20517;-73
2021/03/09 04:44:59;;;;;;;25.63;12.63;;;;;;;5.76;43.16;101462.00;5093794;28;20046;-73
2021/03/09 04:47:28;;;;;;;30.95;17.20;;;;;;;5.76;43.29;101461.16;5067983;28;20070;-73
2021/03/09 04:49:56;;;;;;;28.00;14.68;;;;;;;5.75;43.33;101468.44;5090085;28;20094;-74
2021/03/09 04:52:25;;;;;;;28.55;14.35;;;;;;;5.72;43.55;101468.59;5088374;28;20036;-74
2021/03/09 04:54:53;;;;;;;28.13;14.68;;;;;;;5.72;43.53;101465.00;5096976;28;20040;-74
2021/03/09 04:57:36;;;;;;;26.95;13.90;;;;;;;5.75;44.47;101467.56;5099375;28;20043;-73
2021/03/09 05:00:05;;;;;;;29.90;14.70;;;;;;;5.68;43.70;101461.56;5084976;28;20046;-74
2021/03/09 05:02:32;;;;;;;27.65;15.05;;;;;;;5.70;43.77;101464.22;5091050;28;20051;-73
2021/03/09 05:05:00;;;;;;;28.38;14.93;;;;;;;5.70;43.99;101458.78;5068791;28;20081;-73
2021/03/09 05:07:27;;;;;;;32.35;16.98;;;;;;;5.70;43.66;101456.94;5088866;28;20036;-73
2021/03/09 05:09:55;;;;;;;28.30;15.23;;;;;;;5.70;44.01;101459.66;5071557;28;20040;-74
2021/03/09 05:12:25;;;;;;;26.17;14.25;;;;;;;5.71;44.19;101458.69;5086257;28;20047;-73
2021/03/09 05:14:52;;;;;;;30.60;15.55;;;;;;;5.70;43.77;101458.78;5090578;28;20602;-73
2021/03/09 05:17:19;;;;;;;27.67;14.52;;;;;;;5.69;43.67;101455.19;5090630;28;20036;-74
2021/03/09 05:19:47;;;;;;;27.42;14.35;;;;;;;5.68;43.88;101452.59;5085793;28;20048;-73
2021/03/09 05:22:14;;;;;;;29.73;15.73;;;;;;;5.69;44.01;101457.03;5091164;28;20044;-73
2021/03/09 05:24:42;;;;;;;30.02;15.43;;;;;;;5.66;43.78;101452.66;5090904;28;20050;-74
2021/03/09 05:27:09;;;;;;;27.50;15.88;;;;;;;5.65;43.77;101445.47;5090635;28;20127;-74
2021/03/09 05:29:37;;;;;;;27.38;13.85;;;;;;;5.67;43.69;101443.56;5090198;28;20123;-74
2021/03/09 05:32:06;;;;;;;23.58;13.45;;;;;;;5.63;43.62;101441.97;5072234;28;20101;-74
2021/03/09 05:34:33;;;;;;;27.48;14.48;;;;;;;5.63;43.84;101441.97;5084976;28;20119;-73
2021/03/09 05:37:00;;;;;;;26.90;14.15;;;;;;;5.63;44.00;101441.97;5092412;28;20041;-73
2021/03/09 05:39:28;;;;;;;25.17;13.25;;;;;;;5.64;44.00;101445.56;5081133;28;20044;-72
2021/03/09 05:41:55;;;;;;;26.60;13.30;;;;;;;5.63;43.95;101436.53;5086323;28;20028;-73
2021/03/09 05:44:23;;;;;;;24.45;13.77;;;;;;;5.64;43.95;101437.41;5082343;28;20390;-73
2021/03/09 05:46:51;;;;;;;25.98;13.85;;;;;;;5.66;44.22;101435.50;5089773;28;20032;-74
2021/03/09 05:49:19;;;;;;;24.65;12.63;;;;;;;5.64;43.83;101438.28;5091064;28;20122;-74
2021/03/09 05:51:50;;;;;;;25.48;13.45;;;;;;;5.64;44.31;101430.16;5071709;28;20060;-73
2021/03/09 05:54:18;;;;;;;22.02;12.32;;;;;;;5.64;44.07;101432.88;5067889;28;20059;-74
2021/03/09 05:56:45;;;;;;;28.05;14.65;;;;;;;5.63;44.04;101428.41;5087752;28;20080;-73
2021/03/09 05:59:12;;;;;;;23.92;13.18;;;;;;;5.63;43.81;101422.97;5071649;28;20395;-73
2021/03/09 06:01:40;;;;;;;22.80;12.52;;;;;;;5.62;43.95;101426.66;5093143;28;20039;-73
2021/03/09 06:04:08;;;;;;;27.50;13.70;;;;;;;5.63;43.84;101424.81;5102798;28;20051;-74
2021/03/09 06:06:35;;;;;;;24.13;12.90;;;;;;;5.61;43.89;101427.59;5084187;28;20142;-74
2021/03/09 06:09:23;;;;;;;27.73;14.55;;;;;;;5.60;43.84;101426.72;5086290;28;20119;-74
2021/03/09 06:12:06;;;;;;;24.88;13.30;;;;;;;5.62;44.72;101428.47;5082193;28;20056;-73
2021/03/09 06:14:36;;;;;;;24.25;13.00;;;;;;;5.60;44.31;101429.44;5064258;28;20115;-73
2021/03/09 06:17:04;;;;;;;25.30;13.23;;;;;;;5.62;44.44;101429.34;5091522;28;20105;-74
2021/03/09 06:19:46;;;;;;;22.05;12.20;;;;;;;5.64;44.61;101430.16;5074886;28;20043;-73
2021/03/09 06:22:15;;;;;;;21.92;11.65;;;;;;;5.62;44.34;101431.19;5082879;28;20040;-73
2021/03/09 06:24:43;;;;;;;25.23;11.55;;;;;;;5.62;44.19;101420.34;5092046;28;20072;-73
2021/03/09 06:27:26;;;;;;;23.50;12.60;;;;;;;5.64;44.94;101422.00;5086608;28;20046;-73
2021/03/09 06:29:54;;;;;;;22.55;12.10;;;;;;;5.60;44.36;101421.28;5083677;28;20048;-74
2021/03/09 06:32:21;;;;;;;22.58;11.43;;;;;;;5.63;44.33;101422.09;5069606;28;20074;-74
2021/03/09 06:34:49;;;;;;;19.83;11.00;;;;;;;5.63;44.24;101416.66;5087742;28;20460;-74
2021/03/09 06:37:18;;;;;;;23.92;11.85;;;;;;;5.62;44.29;101418.50;5091655;28;20498;-73
2021/03/09 06:39:56;;;;;;;22.33;11.73;;;;;;;5.64;44.22;101411.16;5089254;28;20039;-73
2021/03/09 06:42:27;;;;;;;25.70;14.00;;;;;;;5.64;44.48;101413.00;5087405;28;20564;-73
2021/03/09 06:44:57;;;;;;;23.02;12.25;;;;;;;5.62;44.50;101412.19;5088658;28;20127;-74
2021/03/09 06:47:35;;;;;;;24.00;12.35;;;;;;;5.63;44.50;101413.94;5089092;28;20465;-75
2021/03/09 06:50:09;;;;;;;21.70;11.68;;;;;;;5.60;44.36;101417.69;5075260;28;20051;-75
2021/03/09 06:52:37;;;;;;;20.30;11.23;;;;;;;5.55;44.05;101417.97;5092253;28;20039;-75
2021/03/09 06:55:07;;;;;;;20.77;11.90;;;;;;;5.56;44.01;101416.16;5085984;28;20051;-75
2021/03/09 06:57:35;;;;;;;21.30;12.45;;;;;;;5.53;43.96;101417.19;5068847;28;20036;-76
2021/03/09 07:00:06;;;;;;;19.67;10.98;;;;;;;5.54;44.42;101420.78;5084999;28;20040;-75
2021/03/09 07:02:33;;;;;;;23.73;11.88;;;;;;;5.51;44.06;101416.38;5093922;28;20032;-73
2021/03/09 07:05:06;;;;;;;21.67;11.23;;;;;;;5.52;44.48;101423.56;5102074;28;20032;-75
2021/03/09 07:07:34;;;;;;;23.07;11.80;;;;;;;5.48;44.43;101421.13;5091839;28;20437;-77
2021/03/09 07:10:06;;;;;;;23.23;12.25;;;;;;;5.50;44.25;101427.34;5094800;28;20047;-79
2021/03/09 07:12:36;;;;;;;24.20;12.13;;;;;;;5.49;44.21;101425.59;5074245;28;20044;-73
2021/03/09 07:15:06;;;;;;;22.27;12.23;;;;;;;5.48;44.64;101419.28;5094154;28;20090;-78
2021/03/09 07:17:36;;;;;;;24.65;12.27;;;;;;;5.47;44.18;101425.69;5094364;28;20040;-76
2021/03/09 07:20:06;;;;;;;20.20;11.20;;;;;;;5.46;44.51;101423.00;5077936;28;20051;-75
2021/03/09 07:22:53;;;;;;;22.50;12.15;;;;;;;5.45;45.03;101426.69;5092597;28;20093;-72
2021/03/09 07:25:21;;;;;;;27.02;13.70;;;;;;;5.43;44.31;101424.06;5076639;28;20062;-73
2021/03/09 07:27:53;;;;;;;21.00;11.50;;;;;;;5.46;44.95;101423.88;5074256;28;20046;-73
2021/03/09 07:30:22;;;;;;;25.48;13.07;;;;;;;5.44;44.71;101431.22;5089866;28;20119;-74
2021/03/09 07:32:52;;;;;;;22.92;11.85;;;;;;;5.45;44.37;101422.13;5093941;28;20039;-71
2021/03/09 07:35:21;;;;;;;24.58;11.85;;;;;;;5.46;44.78;101425.72;5094245;28;20031;-72
2021/03/09 07:37:50;;;;;;;23.55;12.45;;;;;;;5.46;44.42;101428.44;5090931;28;20127;-71
2021/03/09 07:40:19;;;;;;;24.60;12.80;;;;;;;5.46;44.67;101429.31;5073952;28;20031;-72
2021/03/09 07:42:47;;;;;;;21.98;12.00;;;;;;;5.47;44.96;101430.19;5092296;28;20070;-76
2021/03/09 07:45:18;;;;;;;22.65;12.70;;;;;;;5.48;45.19;101430.16;5074156;28;20067;-74
2021/03/09 07:47:50;;;;;;;24.98;12.35;;;;;;;5.51;45.22;101431.81;5076081;28;20063;-75
2021/03/09 07:50:19;;;;;;;26.35;14.52;;;;;;;5.51;45.06;101426.41;5087231;28;20474;-75
2021/03/09 07:53:05;;;;;;;28.58;14.27;;;;;;;5.50;45.36;101428.22;5086065;28;20044;-75
2021/03/09 07:55:32;;;;;;;24.88;13.60;;;;;;;5.49;44.63;101429.19;5095054;28;20429;-75
2021/03/09 07:58:22;;;;;;;24.35;13.13;;;;;;;5.48;45.57;101427.44;5095360;28;20560;-75
2021/03/09 08:01:00;;;;;;;23.70;12.80;;;;;;;5.48;45.45;101427.44;5073118;28;20526;-74
2021/03/09 08:03:28;;;;;;;22.25;12.05;;;;;;;5.48;44.54;101430.16;5098113;28;20044;-74
2021/03/09 08:05:59;;;;;;;23.50;12.30;;;;;;;5.48;44.80;101422.00;5085097;28;20040;-75
2021/03/09 08:08:44;;;;;;;24.60;13.52;;;;;;;5.46;45.20;101418.47;5080007;28;20040;-75
2021/03/09 08:11:38;;;;;;;25.60;13.63;;;;;;;5.42;45.35;101416.91;5081181;28;20123;-75
2021/03/09 08:14:24;;;;;;;22.45;11.07;;;;;;;5.42;45.31;101425.03;5088508;28;20525;-74
2021/03/09 08:16:55;;;;;;;21.75;11.70;;;;;;;5.40;44.59;101421.53;5074604;28;20046;-74
2021/03/09 08:19:42;;;;;;;23.10;12.23;;;;;;;5.40;45.48;101421.53;5105350;27;20116;-75
2021/03/09 08:22:10;;;;;;;22.80;12.15;;;;;;;5.38;44.84;101422.56;5094389;28;20124;-76
2021/03/09 08:24:54;;;;;;;22.23;12.48;;;;;;;5.40;45.80;101415.22;5095949;28;20040;-76
2021/03/09 08:27:41;;;;;;;23.90;12.45;;;;;;;5.39;45.32;101421.59;5070454;28;20036;-74
2021/03/09 08:30:30;;;;;;;22.10;12.23;;;;;;;5.35;45.47;101426.31;5087517;28;20247;-72
2021/03/09 08:33:32;;;;;;;23.55;13.30;;;;;;;5.30;45.67;101425.72;5087159;28;20078;-73
2021/03/09 08:36:00;;;;;;;22.08;11.60;;;;;;;5.33;44.78;101420.13;5102516;28;20044;-74
2021/03/09 08:38:28;;;;;;;23.38;12.10;;;;;;;5.35;45.13;101430.88;5099031;28;20126;-74
2021/03/09 08:41:13;;;;;;;21.70;11.35;;;;;;;5.36;45.88;101416.34;5077070;28;20040;-72
2021/03/09 08:47:12;;;;;;;25.17;12.90;;;;;;;5.30;44.88;101419.41;5094849;28;20472;-76
2021/03/09 08:49:52;;;;;;;22.77;13.10;;;;;;;5.36;45.75;101419.06;5092627;28;20040;-77
2021/03/09 08:52:42;;;;;;;24.70;12.98;;;;;;;5.32;46.04;101422.91;5101490;28;20118;-77
2021/03/09 08:55:10;;;;;;;21.98;12.25;;;;;;;5.31;45.19;101419.31;5081513;28;20057;-76
2021/03/09 08:57:38;;;;;;;25.02;12.50;;;;;;;5.33;44.96;101416.53;5092946;28;20047;-75
2021/03/09 09:00:09;;;;;;;24.02;12.68;;;;;;;5.34;45.16;101423.72;5072191;28;20114;-80
2021/03/09 09:02:41;;;;;;;22.88;13.50;;;;;;;5.35;45.61;101414.59;5075194;28;20085;-75
2021/03/09 09:05:11;;;;;;;19.55;11.68;;;;;;;5.33;45.26;101419.25;5088341;28;20036;-73
2021/03/09 09:07:40;;;;;;;21.85;12.00;;;;;;;5.34;45.02;101410.16;5089016;28;20044;-74
2021/03/09 09:10:10;;;;;;;22.13;11.95;;;;;;;5.34;45.42;101408.31;5073285;28;20051;-75
2021/03/09 09:12:39;;;;;;;20.77;11.88;;;;;;;5.33;45.27;101401.13;5076467;28;20044;-78
2021/03/09 09:15:24;;;;;;;23.58;13.57;;;;;;;5.37;45.79;101408.13;5079788;28;20122;-77
2021/03/09 09:17:55;;;;;;;22.08;12.55;;;;;;;5.33;45.32;101401.13;5072494;28;20052;-77
2021/03/09 09:20:28;;;;;;;19.42;11.30;;;;;;;5.34;45.62;101402.00;5055800;28;20439;-81
2021/03/09 09:23:04;;;;;;;20.25;11.18;;;;;;;5.33;45.18;101398.41;5089753;28;20044;-83
2021/03/09 09:25:34;;;;;;;21.92;11.48;;;;;;;5.35;45.32;101392.88;5081620;28;20131;-75
2021/03/09 09:28:04;;;;;;;19.90;11.57;;;;;;;5.35;45.47;101401.03;5085933;28;20048;-76
2021/03/09 09:30:36;;;;;;;24.00;13.25;;;;;;;5.37;45.66;101399.97;5099048;28;20035;-77
2021/03/09 09:33:05;;;;;;;19.48;11.23;;;;;;;5.34;45.44;101396.59;5111364;28;20051;-74
2021/03/09 09:35:34;;;;;;;20.25;11.38;;;;;;;5.35;45.22;101395.59;5091941;28;20032;-74
2021/03/09 09:41:20;;;;;;;19.50;10.90;;;;;;;5.31;45.04;101402.16;5090503;28;20032;-74
2021/03/09 09:43:53;;;;;;;21.20;12.10;;;;;;;5.34;45.51;101402.00;5100065;28;20058;-75
2021/03/09 09:46:23;;;;;;;17.60;10.18;;;;;;;5.33;45.52;101401.13;5090614;28;20036;-76
2021/03/09 09:48:52;;;;;;;17.25;10.27;;;;;;;5.34;45.17;101399.28;5071703;28;20738;-74
2021/03/09 09:51:24;;;;;;;17.85;10.30;;;;;;;5.33;45.49;101398.41;5089909;28;20032;-73
2021/03/09 09:53:53;;;;;;;18.92;11.20;;;;;;;5.34;45.28;101402.88;5085102;28;20404;-74
2021/03/09 09:56:26;;;;;;;19.60;11.13;;;;;;;5.37;45.66;101394.56;5088990;28;20044;-72
2021/03/09 09:58:54;;;;;;;19.23;11.23;;;;;;;5.33;45.36;101395.72;5092969;28;20032;-74
2021/03/09 10:01:42;;;;;;;19.10;10.73;;;;;;;5.36;46.03;101400.06;5079560;28;20115;-78
2021/03/09 10:04:11;;;;;;;17.88;10.55;;;;;;;5.34;45.53;101397.47;5095215;28;20705;-76
2021/03/09 10:06:41;;;;;;;19.27;11.43;;;;;;;5.38;45.67;101398.16;5098517;28;20035;-74
2021/03/09 10:09:13;;;;;;;18.58;10.68;;;;;;;5.38;45.64;101398.16;5090219;28;20123;-76
2021/03/09 10:11:48;;;;;;;17.98;9.85;;;;;;;5.40;46.07;101394.41;5076082;28;20036;-73
2021/03/09 10:14:18;;;;;;;17.02;9.93;;;;;;;5.39;45.77;101395.34;5062261;28;20036;-75
2021/03/09 10:16:46;;;;;;;17.75;10.15;;;;;;;5.39;45.77;101398.06;5089414;28;20040;-74
2021/03/09 10:19:17;;;;;;;17.27;10.15;;;;;;;5.41;45.71;101401.56;5072945;28;20471;-75
2021/03/09 10:21:46;;;;;;;16.50;9.38;;;;;;;5.43;45.78;101401.50;5088375;28;20411;-74
2021/03/09 10:24:20;;;;;;;16.25;9.27;;;;;;;5.46;46.32;101401.31;5085208;28;20093;-72
2021/03/09 10:26:51;;;;;;;16.25;9.68;;;;;;;5.45;45.69;101400.44;5088857;28;20088;-73
2021/03/09 10:29:20;;;;;;;16.77;10.07;;;;;;;5.46;45.89;101395.88;5089185;28;20384;-75
2021/03/09 10:31:50;;;;;;;18.17;10.45;;;;;;;5.48;45.88;101397.59;5093343;28;20046;-77
2021/03/09 10:34:23;;;;;;;18.67;11.18;;;;;;;5.50;45.89;101394.78;5094474;28;20628;-76
2021/03/09 10:36:59;;;;;;;19.52;10.50;;;;;;;5.53;46.27;101394.59;5067752;28;20043;-74
2021/03/09 10:39:30;;;;;;;21.58;11.68;;;;;;;5.52;45.79;101396.44;5089666;28;20127;-73
2021/03/09 10:41:58;;;;;;;17.17;10.48;;;;;;;5.54;45.74;101390.94;5087039;28;20035;-73
2021/03/09 10:44:43;;;;;;;18.85;10.93;;;;;;;5.56;46.29;101387.16;5087139;28;20087;-75
2021/03/09 10:47:12;;;;;;;20.48;10.98;;;;;;;5.57;45.66;101390.75;5087510;28;20556;-73
2021/03/09 10:49:39;;;;;;;19.45;10.80;;;;;;;5.57;45.61;101386.22;5085341;28;20109;-73
2021/03/09 10:52:09;;;;;;;18.83;10.88;;;;;;;5.60;45.99;101387.84;5087822;28;20063;-75
2021/03/09 10:54:37;;;;;;;18.90;11.23;;;;;;;5.60;45.96;101390.56;5090123;28;20158;-73
2021/03/09 10:57:35;;;;;;;16.95;9.68;;;;;;;5.64;46.50;101389.44;5068650;28;20459;-76
2021/03/09 11:00:07;;;;;;;19.27;11.23;;;;;;;5.63;46.02;101384.09;5073550;28;20048;-76
2021/03/09 11:02:34;;;;;;;18.92;10.55;;;;;;;5.65;45.74;101393.03;5088636;28;20067;-73
2021/03/09 11:05:02;;;;;;;18.80;10.40;;;;;;;5.65;46.11;101391.19;5088270;28;20052;-76
2021/03/09 11:07:31;;;;;;;20.33;10.70;;;;;;;5.69;45.87;101391.88;5089491;28;20454;-74
2021/03/09 11:09:58;;;;;;;17.58;11.00;;;;;;;5.69;45.81;101389.16;5087200;28;20501;-74
2021/03/09 11:12:26;;;;;;;20.38;11.15;;;;;;;5.70;45.93;101388.19;5087427;28;20043;-74
2021/03/09 11:14:53;;;;;;;19.65;10.70;;;;;;;5.71;46.09;101385.41;5070339;28;20040;-75
2021/03/09 11:17:20;;;;;;;21.02;11.13;;;;;;;5.72;46.00;101381.72;5094424;28;20063;-75
2021/03/09 11:19:47;;;;;;;17.92;10.85;;;;;;;5.73;45.98;101378.06;5087570;28;20479;-75
2021/03/09 11:22:15;;;;;;;17.50;10.35;;;;;;;5.75;45.92;101376.13;5088326;28;20098;-75
2021/03/09 11:24:43;;;;;;;19.15;10.90;;;;;;;5.77;46.21;101373.31;5071180;28;20048;-74
2021/03/09 11:27:10;;;;;;;18.95;11.63;;;;;;;5.78;46.04;101380.50;5095726;28;20097;-74
2021/03/09 11:29:38;;;;;;;18.48;10.60;;;;;;;5.79;46.05;101377.69;5052317;28;20313;-75
2021/03/09 11:32:06;;;;;;;19.70;11.55;;;;;;;5.80;46.00;101378.56;5087828;28;20036;-75
2021/03/09 11:34:34;;;;;;;20.77;11.50;;;;;;;5.81;46.04;101369.47;5085153;28;20075;-75
2021/03/09 11:37:03;;;;;;;19.45;10.98;;;;;;;5.84;46.30;101382.88;5082139;28;20113;-75
2021/03/09 11:39:30;;;;;;;20.42;10.95;;;;;;;5.85;46.29;101376.44;5083994;28;20032;-75
2021/03/09 11:41:58;;;;;;;19.17;10.52;;;;;;;5.88;46.27;101379.00;5062536;28;20055;-74